Time;durP1;ratioP1;P1;durP2;ratioP2;P2;SDS_P1;SDS_P2;PMS_P1;PMS_P2;Temp;Humidity;BMP_temperature;BMP_pressure;BME280_temperature;BME280_humidity;BME280_pressure;Samples;Min_cycle;Max_cycle;Signal;HPM_P1;HPM_P2
2021/06/29 00:00:59;;;;;;;5.13;4.70;;;19.40;99.90;;;;;;6252637;28;20191;-72
2021/06/29 00:04:01;;;;;;;7.23;5.37;;;19.40;99.90;;;;;;6269442;28;20239;-72
2021/06/29 00:07:04;;;;;;;6.00;5.40;;;19.30;99.90;;;;;;6269822;28;20257;-72
2021/06/29 00:10:07;;;;;;;5.97;4.93;;;19.30;99.90;;;;;;6270015;28;20218;-72
2021/06/29 00:13:10;;;;;;;5.37;4.93;;;19.30;99.90;;;;;;6251995;28;20262;-72
2021/06/29 00:16:13;;;;;;;5.97;5.47;;;19.30;99.90;;;;;;6270014;28;20183;-72
2021/06/29 00:19:15;;;;;;;5.50;5.00;;;19.20;99.90;;;;;;6243343;28;20218;-72
2021/06/29 00:22:17;;;;;;;6.43;5.33;;;19.20;99.90;;;;;;6243921;28;20184;-72
2021/06/29 00:25:20;;;;;;;5.50;5.00;;;19.20;99.90;;;;;;6243542;28;20202;-72
2021/06/29 00:28:23;;;;;;;5.20;4.73;;;19.10;99.90;;;;;;6252032;28;20199;-72
2021/06/29 00:31:25;;;;;;;5.50;5.03;;;19.10;99.90;;;;;;6251813;28;20579;-72
2021/06/29 00:34:28;;;;;;;5.67;4.53;;;19.10;99.90;;;;;;6269163;28;20647;-72
2021/06/29 00:37:30;;;;;;;5.83;5.33;;;19.00;99.90;;;;;;6251879;28;20184;-72
2021/06/29 00:40:33;;;;;;;6.03;4.87;;;19.00;99.90;;;;;;6234918;28;20199;-72
2021/06/29 00:43:35;;;;;;;7.37;5.20;;;18.90;99.90;;;;;;6251971;28;20192;-72
2021/06/29 00:46:37;;;;;;;9.40;5.67;;;19.00;99.90;;;;;;6252388;28;20325;-72
2021/06/29 00:49:40;;;;;;;6.73;5.60;;;18.90;99.90;;;;;;6250827;28;20608;-72
2021/06/29 00:52:43;;;;;;;6.13;5.53;;;18.90;99.90;;;;;;6273062;28;20195;-72
2021/06/29 00:55:46;;;;;;;6.33;4.67;;;18.80;99.90;;;;;;6273866;28;20183;-72
2021/06/29 00:58:48;;;;;;;6.87;5.50;;;18.70;99.90;;;;;;6256084;28;20203;-72
2021/06/29 01:01:51;;;;;;;9.53;5.80;;;18.70;99.90;;;;;;6273927;28;20566;-72
2021/06/29 01:04:53;;;;;;;4.80;4.40;;;18.70;99.90;;;;;;6255896;28;20246;-72
2021/06/29 01:07:55;;;;;;;5.97;5.37;;;18.60;99.90;;;;;;6273841;28;20191;-72
2021/06/29 01:10:58;;;;;;;7.33;5.83;;;18.50;99.90;;;;;;6273446;28;20207;-72
2021/06/29 01:14:16;;;;;;;7.53;5.57;;;18.60;99.90;;;;;;6256073;28;20244;-72
2021/06/29 01:17:18;;;;;;;5.93;5.33;;;18.50;99.90;;;;;;6255549;28;20607;-72
2021/06/29 01:20:25;;;;;;;6.27;5.07;;;18.50;99.90;;;;;;6273914;28;20198;-72
2021/06/29 01:23:51;;;;;;;5.33;4.90;;;18.50;99.90;;;;;;6282672;28;20176;-72
2021/06/29 01:33:02;;;;;;;6.07;5.53;;;18.50;99.90;;;;;;6272954;28;20192;-72
2021/06/29 01:36:04;;;;;;;8.20;5.67;;;18.50;99.90;;;;;;6255712;28;20261;-72
2021/06/29 01:39:12;;;;;;;5.60;4.87;;;18.50;99.90;;;;;;6272683;28;20196;-72
2021/06/29 01:42:14;;;;;;;7.37;4.83;;;18.40;99.90;;;;;;6255302;28;20662;-72
2021/06/29 01:45:17;;;;;;;5.63;4.83;;;18.40;99.90;;;;;;6255213;28;20195;-72
2021/06/29 01:48:21;;;;;;;5.53;5.03;;;18.40;99.90;;;;;;6272566;28;20191;-72
2021/06/29 01:51:24;;;;;;;7.97;5.03;;;18.40;99.90;;;;;;6272940;28;20214;-72
2021/06/29 01:54:27;;;;;;;6.63;5.27;;;18.40;99.90;;;;;;6238583;28;20655;-72
2021/06/29 01:57:30;;;;;;;4.90;4.40;;;18.40;99.90;;;;;;6272713;28;20202;-72
2021/06/29 02:00:33;;;;;;;5.27;4.77;;;18.30;99.90;;;;;;6238428;28;20253;-72
2021/06/29 02:03:35;;;;;;;7.03;5.07;;;18.30;99.90;;;;;;6254026;28;20226;-72
2021/06/29 02:06:40;;;;;;;5.90;5.10;;;18.20;99.90;;;;;;6254573;28;20242;-72
2021/06/29 02:09:42;;;;;;;5.70;5.20;;;18.20;99.90;;;;;;6254453;28;20689;-72
2021/06/29 02:12:45;;;;;;;9.00;4.97;;;18.10;99.90;;;;;;6272614;28;20201;-72
2021/06/29 02:15:47;;;;;;;7.50;5.23;;;18.10;99.90;;;;;;6254421;28;20608;-72
2021/06/29 02:18:50;;;;;;;5.87;5.20;;;18.00;99.90;;;;;;6271610;28;20184;-72
2021/06/29 02:21:52;;;;;;;6.07;5.13;;;18.00;99.90;;;;;;6254330;28;20202;-72
2021/06/29 02:24:54;;;;;;;5.80;5.30;;;18.00;99.90;;;;;;6254318;28;20286;-72
2021/06/29 02:27:57;;;;;;;5.37;4.87;;;18.00;99.90;;;;;;6272004;28;20203;-72
2021/06/29 02:30:59;;;;;;;5.33;4.87;;;17.90;99.90;;;;;;6237633;28;20683;-72
2021/06/29 02:34:01;;;;;;;5.47;4.97;;;17.90;99.90;;;;;;6272047;28;20210;-72
2021/06/29 02:37:04;;;;;;;7.83;4.93;;;17.90;99.90;;;;;;6271774;28;20187;-72
2021/06/29 02:40:07;;;;;;;5.57;5.07;;;17.90;99.90;;;;;;6271480;28;20266;-72
2021/06/29 02:43:09;;;;;;;5.90;5.37;;;17.90;99.90;;;;;;6271587;28;20190;-72
2021/06/29 02:46:12;;;;;;;5.13;4.63;;;17.90;99.90;;;;;;6271222;28;20217;-72
2021/06/29 02:49:14;;;;;;;8.33;5.80;;;17.80;99.90;;;;;;6271845;28;20191;-72
2021/06/29 02:52:16;;;;;;;5.03;4.63;;;17.70;99.90;;;;;;6271607;28;20180;-72
2021/06/29 02:55:18;;;;;;;5.33;4.93;;;17.70;99.90;;;;;;6253177;28;20191;-72
2021/06/29 02:58:21;;;;;;;6.00;5.40;;;17.70;99.90;;;;;;6253552;28;20208;-72
2021/06/29 03:01:23;;;;;;;5.50;5.03;;;17.60;99.90;;;;;;6244883;28;20188;-72
2021/06/29 03:04:25;;;;;;;5.90;5.27;;;17.60;99.90;;;;;;6246308;28;20228;-72
2021/06/29 03:07:28;;;;;;;5.53;5.03;;;17.50;99.90;;;;;;6246450;28;20696;-72
2021/06/29 03:10:30;;;;;;;5.73;5.23;;;17.60;99.90;;;;;;6245934;28;20215;-72
2021/06/29 03:13:33;;;;;;;6.00;5.40;;;17.50;99.90;;;;;;6244494;28;20188;-72
2021/06/29 03:16:35;;;;;;;6.60;5.70;;;17.50;99.90;;;;;;6244896;28;20199;-72
2021/06/29 03:19:37;;;;;;;6.83;5.13;;;17.50;99.90;;;;;;6246071;28;20196;-72
2021/06/29 03:22:40;;;;;;;6.17;5.33;;;17.50;99.90;;;;;;6244779;28;20660;-72
2021/06/29 03:25:42;;;;;;;6.27;5.67;;;17.40;99.90;;;;;;6246047;28;20241;-72
2021/06/29 03:28:45;;;;;;;6.53;5.27;;;17.40;99.90;;;;;;6261685;28;20191;-72
2021/06/29 03:31:47;;;;;;;5.33;4.93;;;17.40;99.90;;;;;;6252370;28;20665;-72
2021/06/29 03:34:49;;;;;;;10.20;5.43;;;17.40;99.90;;;;;;6270584;28;20551;-72
2021/06/29 03:37:52;;;;;;;6.20;5.47;;;17.50;99.90;;;;;;6269783;28;20195;-72
2021/06/29 03:40:55;;;;;;;6.00;5.50;;;17.50;99.90;;;;;;6236143;28;20234;-72
2021/06/29 03:43:57;;;;;;;6.83;6.20;;;17.40;99.90;;;;;;6252190;28;20198;-72
2021/06/29 03:46:59;;;;;;;5.90;5.40;;;17.40;99.90;;;;;;6270583;28;20194;-72
2021/06/29 03:50:03;;;;;;;7.17;6.47;;;17.40;99.90;;;;;;6252510;28;20241;-72
2021/06/29 03:53:06;;;;;;;6.20;5.60;;;17.40;99.90;;;;;;6269971;28;20237;-72
2021/06/29 03:56:23;;;;;;;6.63;5.83;;;17.40;99.90;;;;;;6252772;28;20195;-72
2021/06/29 03:59:25;;;;;;;6.20;5.63;;;17.40;99.90;;;;;;6252260;28;20290;-72
2021/06/29 04:02:28;;;;;;;7.53;5.80;;;17.40;99.90;;;;;;6235797;28;20257;-72
2021/06/29 04:05:30;;;;;;;6.90;6.30;;;17.40;99.90;;;;;;6269653;28;20227;-72
2021/06/29 04:08:32;;;;;;;6.60;6.10;;;17.40;99.90;;;;;;6251375;28;20191;-72
2021/06/29 04:11:36;;;;;;;6.80;6.30;;;17.40;99.90;;;;;;6270095;28;20218;-72
2021/06/29 04:14:39;;;;;;;6.63;6.10;;;17.50;99.90;;;;;;6269214;28;20285;-72
2021/06/29 04:17:41;;;;;;;7.00;6.40;;;17.50;99.90;;;;;;6251837;28;20554;-72
2021/06/29 04:20:44;;;;;;;7.73;6.80;;;17.60;99.90;;;;;;6269509;28;20184;-72
2021/06/29 04:23:46;;;;;;;6.57;5.97;;;17.60;99.90;;;;;;6269130;28;20265;-72
2021/06/29 04:26:48;;;;;;;6.97;6.40;;;17.60;99.90;;;;;;6239126;28;20218;-72
2021/06/29 04:29:52;;;;;;;7.63;6.83;;;17.70;99.90;;;;;;6256109;28;20219;-72
2021/06/29 04:32:54;;;;;;;7.47;6.77;;;17.70;99.90;;;;;;6274546;28;20575;-72
2021/06/29 04:35:56;;;;;;;7.00;6.50;;;17.70;99.90;;;;;;6256473;28;20199;-72
2021/06/29 04:38:58;;;;;;;7.83;7.10;;;17.70;99.90;;;;;;6255897;28;20207;-72
2021/06/29 04:42:01;;;;;;;9.93;6.77;;;17.90;99.90;;;;;;6256491;28;20210;-72
2021/06/29 04:45:05;;;;;;;7.67;6.97;;;18.20;99.90;;;;;;6273817;28;20195;-72
2021/06/29 04:48:07;;;;;;;6.70;6.10;;;18.30;99.90;;;;;;6239832;28;20210;-72
2021/06/29 04:51:09;;;;;;;7.30;6.60;;;18.50;99.90;;;;;;6256370;28;20209;-72
2021/06/29 04:54:12;;;;;;;7.70;6.37;;;18.70;99.90;;;;;;6273931;28;20266;-72
2021/06/29 04:57:14;;;;;;;9.23;6.17;;;19.00;99.90;;;;;;6273765;28;20219;-72
2021/06/29 05:00:18;;;;;;;6.57;5.97;;;19.40;99.90;;;;;;6273242;28;20785;-72
2021/06/29 05:03:21;;;;;;;6.33;5.73;;;19.70;99.90;;;;;;6272369;28;20269;-72
2021/06/29 05:06:24;;;;;;;7.03;5.80;;;20.00;99.90;;;;;;6273227;28;20642;-72
2021/06/29 05:09:26;;;;;;;7.07;6.37;;;20.20;99.90;;;;;;6273529;28;20194;-72
2021/06/29 05:12:28;;;;;;;6.17;5.67;;;20.40;99.90;;;;;;6255850;28;20235;-72
2021/06/29 05:15:30;;;;;;;6.23;5.67;;;20.50;99.90;;;;;;6255267;28;20192;-72
2021/06/29 05:18:33;;;;;;;6.37;5.77;;;20.70;99.90;;;;;;6255453;28;20304;-72
2021/06/29 05:21:36;;;;;;;5.93;5.37;;;20.80;99.90;;;;;;6238778;28;20203;-72
2021/06/29 05:24:38;;;;;;;5.80;5.30;;;20.90;99.90;;;;;;6273307;28;20198;-72
2021/06/29 05:27:42;;;;;;;6.77;5.43;;;21.00;99.90;;;;;;6255116;28;20210;-72
2021/06/29 05:30:45;;;;;;;6.90;5.27;;;21.10;99.90;;;;;;6255044;28;20578;-72
2021/06/29 05:33:48;;;;;;;8.43;5.50;;;21.10;99.90;;;;;;6273157;28;20274;-72
2021/06/29 05:36:50;;;;;;;5.93;5.43;;;21.20;99.90;;;;;;6253918;28;20681;-72
2021/06/29 05:39:52;;;;;;;7.90;4.97;;;21.30;99.90;;;;;;6246671;28;20360;-72
2021/06/29 05:42:55;;;;;;;5.40;4.90;;;21.40;99.90;;;;;;6248196;28;20184;-72
2021/06/29 05:45:58;;;;;;;5.00;4.60;;;21.50;99.90;;;;;;6247670;28;20259;-72
2021/06/29 05:49:03;;;;;;;6.57;5.00;;;21.60;99.90;;;;;;6247168;28;20611;-72
2021/06/29 05:52:05;;;;;;;5.53;5.03;;;21.60;99.90;;;;;;6246765;28;20282;-72
2021/06/29 05:55:08;;;;;;;5.57;5.07;;;21.70;99.90;;;;;;6246937;28;20196;-72
2021/06/29 05:58:11;;;;;;;5.07;4.60;;;21.80;99.90;;;;;;6254633;28;20659;-72
2021/06/29 06:01:13;;;;;;;5.33;4.73;;;21.90;99.90;;;;;;6272733;28;20305;-72
2021/06/29 06:04:15;;;;;;;5.60;5.10;;;22.00;99.90;;;;;;6237998;28;20227;-72
2021/06/29 06:07:17;;;;;;;5.00;4.60;;;22.10;99.90;;;;;;6253985;28;20198;-72
2021/06/29 06:10:20;;;;;;;5.50;4.70;;;22.20;99.90;;;;;;6272110;28;20199;-72
2021/06/29 06:13:22;;;;;;;4.80;4.47;;;22.30;99.90;;;;;;6254110;28;20184;-72
2021/06/29 06:16:25;;;;;;;4.90;4.50;;;22.30;99.90;;;;;;6237881;28;20640;-72
2021/06/29 06:19:27;;;;;;;4.50;4.10;;;22.40;99.90;;;;;;6271828;28;20197;-72
2021/06/29 06:22:29;;;;;;;7.73;4.73;;;22.50;99.90;;;;;;6254031;28;20192;-72
2021/06/29 06:25:32;;;;;;;5.70;4.37;;;22.60;99.90;;;;;;6253921;28;20195;-72
2021/06/29 06:28:35;;;;;;;5.00;4.50;;;22.60;99.90;;;;;;6253543;28;20207;-72
2021/06/29 06:31:38;;;;;;;4.53;4.20;;;22.70;99.90;;;;;;6272033;28;20222;-72
2021/06/29 06:34:40;;;;;;;4.17;3.77;;;22.80;99.90;;;;;;6254080;28;20179;-72
2021/06/29 06:37:43;;;;;;;3.77;3.43;;;22.90;99.90;;;;;;6270932;28;20305;-72
2021/06/29 06:40:45;;;;;;;3.80;3.50;;;23.10;99.90;;;;;;6253990;28;20188;-72
2021/06/29 06:43:47;;;;;;;5.00;3.90;;;23.30;99.90;;;;;;6253234;28;20722;-72
2021/06/29 06:46:50;;;;;;;4.10;3.70;;;23.40;99.90;;;;;;6271526;28;20282;-72
2021/06/29 06:49:52;;;;;;;4.33;3.67;;;23.60;99.90;;;;;;6285194;28;20236;-72
2021/06/29 06:52:55;;;;;;;4.00;3.60;;;23.80;99.90;;;;;;6253216;28;20194;-72
2021/06/29 06:55:58;;;;;;;5.07;3.97;;;24.00;99.90;;;;;;6271603;28;20300;-72
2021/06/29 06:59:00;;;;;;;4.10;3.60;;;24.20;99.90;;;;;;6269055;28;20207;-72
2021/06/29 07:02:03;;;;;;;4.10;3.80;;;24.40;99.90;;;;;;6252927;28;20218;-72
2021/06/29 07:05:06;;;;;;;7.20;4.30;;;24.50;99.90;;;;;;6270475;28;20310;-72
2021/06/29 07:08:08;;;;;;;3.90;3.60;;;24.70;99.90;;;;;;6252859;28;20564;-72
2021/06/29 07:11:11;;;;;;;3.50;3.23;;;24.80;99.90;;;;;;6270834;28;20289;-72
2021/06/29 07:14:13;;;;;;;3.73;3.37;;;25.10;99.90;;;;;;6252681;28;20653;-72
2021/06/29 07:17:15;;;;;;;3.73;3.40;;;25.20;99.90;;;;;;6236523;28;20226;-72
2021/06/29 07:20:18;;;;;;;3.93;3.33;;;25.40;99.90;;;;;;6270060;28;20195;-72
2021/06/29 07:23:20;;;;;;;4.20;3.07;;;25.60;99.90;;;;;;6270524;28;20198;-72
2021/06/29 07:26:23;;;;;;;4.07;3.10;;;25.70;99.90;;;;;;6252748;28;20663;-73
2021/06/29 07:29:25;;;;;;;4.55;3.50;;;25.80;99.90;;;;;;6252167;28;20194;-72
2021/06/29 07:32:28;;;;;;;3.97;3.33;;;26.10;99.90;;;;;;6235301;28;20294;-72
2021/06/29 07:35:30;;;;;;;5.00;3.65;;;26.40;99.50;;;;;;6251005;28;20207;-72
2021/06/29 07:38:32;;;;;;;3.50;3.20;;;26.70;98.40;;;;;;6251434;28;20341;-72
2021/06/29 07:41:36;;;;;;;3.85;3.38;;;26.90;97.80;;;;;;6258421;28;20741;-72
2021/06/29 07:44:38;;;;;;;3.00;2.80;;;27.20;97.20;;;;;;6253963;28;20437;-72
2021/06/29 07:47:40;;;;;;;3.25;3.05;;;27.40;96.50;;;;;;6263673;28;20199;-72
2021/06/29 07:50:43;;;;;;;3.80;3.30;;;27.70;95.50;;;;;;6253047;28;20218;-72
2021/06/29 07:53:46;;;;;;;3.30;3.00;;;27.90;94.40;;;;;;6252037;28;20198;-72
2021/06/29 07:56:48;;;;;;;3.60;3.30;;;27.90;94.30;;;;;;6262033;28;20192;-72
2021/06/29 07:59:51;;;;;;;3.47;3.00;;;28.00;93.40;;;;;;6251481;28;20203;-72
2021/06/29 08:02:53;;;;;;;3.75;3.10;;;28.20;93.70;;;;;;6252011;28;20341;-72
2021/06/29 08:05:56;;;;;;;5.45;3.30;;;28.30;93.10;;;;;;6259761;28;20721;-72
2021/06/29 08:08:58;;;;;;;3.90;3.38;;;28.30;91.70;;;;;;6259919;28;20196;-72
2021/06/29 08:12:02;;;;;;;3.70;3.30;;;28.30;91.20;;;;;;6268112;28;20215;-72
2021/06/29 08:15:06;;;;;;;3.92;3.45;;;28.50;91.70;;;;;;6258876;28;20195;-72
2021/06/29 08:18:16;;;;;;;5.10;3.25;;;28.50;89.20;;;;;;6261197;28;20184;-72
2021/06/29 08:21:18;;;;;;;3.58;3.28;;;28.50;90.90;;;;;;6267191;28;20682;-72
2021/06/29 08:24:20;;;;;;;3.03;2.83;;;28.70;90.30;;;;;;6251729;28;20577;-72
2021/06/29 08:27:23;;;;;;;3.08;2.70;;;29.00;90.40;;;;;;6248939;28;20187;-72
2021/06/29 08:30:26;;;;;;;4.40;3.00;;;29.50;88.10;;;;;;6268256;28;20214;-72
2021/06/29 08:33:28;;;;;;;5.75;3.13;;;29.50;85.90;;;;;;6253954;28;20191;-72
2021/06/29 08:36:31;;;;;;;2.90;2.70;;;29.80;85.60;;;;;;6261778;28;20201;-72
2021/06/29 08:39:33;;;;;;;3.45;2.90;;;29.70;84.00;;;;;;6245211;28;20214;-72
2021/06/29 08:42:39;;;;;;;3.83;3.10;;;30.10;83.90;;;;;;6268165;28;20195;-72
2021/06/29 08:45:41;;;;;;;3.40;3.10;;;30.60;82.50;;;;;;6270247;28;20278;-72
2021/06/29 08:48:44;;;;;;;3.40;3.10;;;30.90;80.50;;;;;;6263976;28;20388;-72
2021/06/29 08:51:48;;;;;;;2.85;2.65;;;31.10;81.20;;;;;;6268991;28;20257;-72
2021/06/29 08:54:50;;;;;;;3.10;2.90;;;31.40;80.00;;;;;;6266440;28;20219;-72
2021/06/29 08:57:52;;;;;;;3.47;3.17;;;31.30;76.20;;;;;;6266822;28;20203;-72
2021/06/29 09:00:55;;;;;;;3.60;3.30;;;31.40;75.40;;;;;;6251361;28;20206;-72
2021/06/29 09:03:58;;;;;;;4.63;3.42;;;31.70;76.00;;;;;;6266301;28;20342;-72
2021/06/29 09:07:24;;;;;;;3.55;3.28;;;31.90;72.50;;;;;;6252533;28;20673;-72
2021/06/29 09:10:27;;;;;;;3.83;3.17;;;32.10;72.80;;;;;;6234509;28;20199;-72
2021/06/29 09:13:33;;;;;;;3.63;3.33;;;32.10;70.80;;;;;;6259138;28;20532;-72
2021/06/29 09:16:36;;;;;;;5.90;4.15;;;32.10;71.70;;;;;;6273473;28;20212;-72
2021/06/29 09:19:39;;;;;;;4.10;3.80;;;32.00;68.20;;;;;;6272594;28;20270;-72
2021/06/29 09:22:41;;;;;;;4.18;3.88;;;31.80;70.10;;;;;;6272375;28;20210;-72
2021/06/29 09:26:05;;;;;;;3.95;3.65;;;31.90;70.30;;;;;;6272931;28;20198;-72
2021/06/29 09:29:07;;;;;;;5.15;4.07;;;31.90;68.20;;;;;;6261446;28;20202;-72
2021/06/29 09:32:19;;;;;;;5.72;4.13;;;31.80;67.90;;;;;;6273054;28;20218;-72
2021/06/29 09:35:21;;;;;;;5.50;4.18;;;32.00;67.80;;;;;;6255069;28;20241;-72
2021/06/29 09:38:27;;;;;;;3.95;3.65;;;32.20;67.30;;;;;;6255298;28;20191;-72
2021/06/29 09:41:32;;;;;;;4.82;3.60;;;32.20;68.10;;;;;;6272906;28;20251;-72
2021/06/29 09:44:35;;;;;;;4.25;3.85;;;32.30;65.70;;;;;;6273119;28;20263;-72
2021/06/29 09:47:45;;;;;;;4.53;3.35;;;32.40;66.30;;;;;;6272670;28;20180;-72
2021/06/29 09:50:52;;;;;;;4.28;3.72;;;32.50;65.80;;;;;;6255172;28;20192;-72
2021/06/29 09:53:59;;;;;;;3.60;3.40;;;32.40;65.40;;;;;;6273040;28;20171;-72
2021/06/29 09:57:09;;;;;;;4.10;3.80;;;32.60;67.10;;;;;;6272630;28;20203;-72
2021/06/29 10:00:12;;;;;;;4.47;4.07;;;33.00;64.40;;;;;;6246845;28;20233;-72
2021/06/29 10:03:19;;;;;;;4.15;3.85;;;33.10;62.90;;;;;;6246170;28;20204;-72
2021/06/29 10:06:26;;;;;;;4.20;3.90;;;33.10;59.70;;;;;;6246671;28;20326;-72
2021/06/29 10:09:29;;;;;;;3.72;3.42;;;33.20;62.60;;;;;;6248212;28;20183;-72
2021/06/29 10:12:32;;;;;;;3.97;3.55;;;33.60;59.40;;;;;;6246178;28;20222;-72
2021/06/29 10:15:34;;;;;;;3.60;3.30;;;33.60;58.80;;;;;;6247707;28;20192;-72
2021/06/29 10:21:55;;;;;;;3.00;2.72;;;34.00;59.10;;;;;;6246357;28;20195;-72
2021/06/29 10:24:58;;;;;;;2.90;2.70;;;33.80;57.70;;;;;;6245738;28;20208;-72
2021/06/29 10:28:00;;;;;;;3.08;2.80;;;33.90;57.30;;;;;;6257224;28;20203;-72
2021/06/29 10:31:03;;;;;;;4.72;3.00;;;33.50;57.00;;;;;;6271933;28;20234;-72
2021/06/29 10:34:07;;;;;;;2.60;2.40;;;33.60;57.50;;;;;;6254101;28;20674;-72
2021/06/29 10:37:10;;;;;;;2.40;2.20;;;33.80;57.50;;;;;;6237733;28;20195;-72
2021/06/29 10:40:13;;;;;;;4.60;2.60;;;34.20;57.30;;;;;;6245322;28;20270;-72
2021/06/29 10:43:16;;;;;;;2.60;2.40;;;34.20;56.30;;;;;;6247170;28;20188;-72
2021/06/29 10:46:27;;;;;;;3.08;2.88;;;34.50;56.70;;;;;;6247712;28;20298;-72
2021/06/29 10:49:37;;;;;;;3.22;2.60;;;34.50;54.10;;;;;;6245190;28;20549;-72
2021/06/29 10:52:41;;;;;;;3.50;2.60;;;34.20;55.80;;;;;;6246769;28;20561;-72
2021/06/29 10:55:47;;;;;;;2.22;2.08;;;34.20;55.60;;;;;;6245101;28;20767;-72
2021/06/29 10:58:51;;;;;;;2.17;2.03;;;34.40;56.00;;;;;;6253343;28;20673;-72
2021/06/29 11:01:54;;;;;;;2.47;2.22;;;34.70;55.00;;;;;;6252960;28;20288;-72
2021/06/29 11:05:08;;;;;;;2.55;2.35;;;34.70;55.00;;;;;;6270865;28;20231;-72
2021/06/29 11:08:16;;;;;;;2.53;2.28;;;34.60;53.90;;;;;;6253414;28;20196;-72
2021/06/29 11:11:18;;;;;;;2.13;1.92;;;34.50;53.80;;;;;;6236412;28;20223;-72
2021/06/29 11:14:28;;;;;;;3.47;2.13;;;34.70;54.10;;;;;;6253513;28;20641;-71
2021/06/29 11:17:54;;;;;;;2.30;2.10;;;34.40;52.80;;;;;;6270722;28;20180;-71
2021/06/29 11:20:56;;;;;;;2.00;1.80;;;34.40;53.20;;;;;;6270758;28;20254;-71
2021/06/29 11:23:58;;;;;;;2.28;1.88;;;34.70;52.60;;;;;;6252433;28;20523;-71
2021/06/29 11:27:01;;;;;;;1.80;1.70;;;34.90;52.30;;;;;;6270584;28;20191;-71
2021/06/29 11:30:04;;;;;;;1.80;1.70;;;34.90;51.80;;;;;;6236154;28;20675;-71
2021/06/29 11:33:35;;;;;;;2.20;2.10;;;34.80;50.80;;;;;;6269933;28;20222;-71
2021/06/29 11:36:43;;;;;;;2.03;1.90;;;34.90;51.00;;;;;;6269997;28;20205;-71
2021/06/29 11:40:04;;;;;;;1.88;1.77;;;35.10;51.30;;;;;;6269859;28;20183;-71
2021/06/29 11:43:09;;;;;;;1.73;1.63;;;35.20;51.40;;;;;;6270293;28;20218;-71
2021/06/29 11:46:31;;;;;;;1.83;1.73;;;35.50;50.30;;;;;;6252231;28;20268;-71
2021/06/29 11:50:00;;;;;;;1.50;1.40;;;35.70;51.00;;;;;;6252186;28;20277;-71
2021/06/29 11:53:02;;;;;;;3.25;1.80;;;35.90;50.30;;;;;;6235906;28;20215;-71
2021/06/29 11:56:10;;;;;;;2.60;1.90;;;35.80;49.60;;;;;;6251989;28;20187;-71
2021/06/29 11:59:32;;;;;;;2.00;1.90;;;35.60;50.00;;;;;;6269770;28;20200;-71
2021/06/29 12:02:35;;;;;;;3.17;1.90;;;35.60;49.90;;;;;;6269698;28;20176;-71
2021/06/29 12:05:38;;;;;;;2.33;1.85;;;35.90;50.30;;;;;;6252340;28;20440;-71
2021/06/29 12:08:40;;;;;;;1.85;1.75;;;36.30;48.70;;;;;;6269390;28;20198;-72
2021/06/29 12:11:42;;;;;;;1.80;1.70;;;36.50;48.10;;;;;;6270028;28;20349;-72
2021/06/29 12:14:45;;;;;;;3.38;1.80;;;36.70;47.80;;;;;;6251911;28;20679;-72
2021/06/29 12:17:54;;;;;;;1.70;1.60;;;36.80;46.90;;;;;;6251621;28;20199;-72
2021/06/29 12:21:02;;;;;;;3.17;1.90;;;36.70;46.10;;;;;;6270005;28;20653;-72
2021/06/29 12:24:13;;;;;;;1.88;1.75;;;36.40;47.20;;;;;;6269419;28;20762;-72
2021/06/29 12:27:19;;;;;;;1.85;1.75;;;36.50;47.40;;;;;;6269711;28;20199;-71
2021/06/29 12:30:30;;;;;;;1.70;1.60;;;36.60;46.70;;;;;;6251455;28;20663;-71
2021/06/29 12:33:44;;;;;;;3.28;1.80;;;36.50;46.40;;;;;;6269522;28;20594;-71
2021/06/29 12:36:46;;;;;;;1.90;1.80;;;36.60;46.20;;;;;;6269732;28;20180;-71
2021/06/29 12:39:48;;;;;;;2.47;2.20;;;37.00;46.00;;;;;;6242787;28;20191;-71
2021/06/29 12:42:51;;;;;;;2.75;2.15;;;37.00;45.50;;;;;;6244886;28;20184;-71
2021/06/29 12:45:55;;;;;;;2.10;2.00;;;36.80;44.70;;;;;;6243179;28;20287;-71
2021/06/29 12:49:00;;;;;;;2.92;2.40;;;36.70;46.20;;;;;;6248550;28;20192;-71
2021/06/29 12:52:10;;;;;;;2.90;2.35;;;36.70;45.60;;;;;;6249302;28;20204;-71
2021/06/29 12:55:13;;;;;;;2.53;2.33;;;36.70;46.30;;;;;;6248836;28;20176;-71
2021/06/29 12:58:16;;;;;;;2.60;2.40;;;37.00;46.00;;;;;;6261213;28;20195;-71
2021/06/29 13:01:20;;;;;;;2.42;2.00;;;37.10;45.70;;;;;;6273501;28;20183;-71
2021/06/29 13:04:42;;;;;;;3.63;2.70;;;37.30;45.10;;;;;;6255714;28;20280;-71
2021/06/29 13:07:45;;;;;;;2.75;2.30;;;37.50;45.30;;;;;;6273497;28;20187;-71
2021/06/29 13:10:47;;;;;;;4.15;2.45;;;37.50;45.00;;;;;;6255739;28;20191;-71
2021/06/29 13:14:05;;;;;;;2.90;2.70;;;37.60;45.30;;;;;;6255942;28;20216;-71
2021/06/29 13:17:13;;;;;;;3.97;2.65;;;37.40;44.90;;;;;;6273612;28;20287;-71
2021/06/29 13:20:21;;;;;;;3.05;2.28;;;37.30;44.30;;;;;;6273602;28;20172;-71
2021/06/29 13:23:24;;;;;;;5.75;2.50;;;37.50;44.60;;;;;;6273009;28;20187;-71
2021/06/29 13:26:27;;;;;;;2.58;2.38;;;37.50;44.70;;;;;;6273429;28;20648;-71
2021/06/29 13:29:38;;;;;;;3.28;2.60;;;37.10;44.20;;;;;;6238527;28;20326;-71
2021/06/29 13:32:42;;;;;;;3.42;2.60;;;37.30;45.10;;;;;;6273202;28;20203;-71
2021/06/29 13:35:47;;;;;;;2.80;2.60;;;37.40;43.90;;;;;;6255781;28;20187;-71
2021/06/29 13:38:54;;;;;;;2.72;2.53;;;37.50;44.40;;;;;;6272511;28;20175;-71
2021/06/29 13:41:58;;;;;;;3.00;2.70;;;37.40;44.10;;;;;;6238845;28;20273;-71
2021/06/29 13:45:03;;;;;;;2.78;2.53;;;37.30;44.30;;;;;;6273050;28;20198;-71
2021/06/29 13:48:07;;;;;;;2.78;2.58;;;37.40;44.00;;;;;;6272991;28;20188;-71
2021/06/29 13:51:29;;;;;;;2.97;2.58;;;37.90;43.60;;;;;;6272791;28;20203;-71
2021/06/29 13:54:32;;;;;;;3.22;2.97;;;39.00;42.60;;;;;;6272268;28;20187;-71
2021/06/29 13:57:34;;;;;;;3.45;3.15;;;39.40;41.90;;;;;;6272444;28;20206;-71
2021/06/29 14:00:43;;;;;;;3.13;2.83;;;39.00;41.30;;;;;;6272103;28;20187;-71
2021/06/29 14:04:00;;;;;;;3.53;3.22;;;38.50;42.40;;;;;;6272388;28;20199;-71
2021/06/29 14:07:10;;;;;;;3.53;2.80;;;38.80;42.20;;;;;;6254313;28;20631;-71
2021/06/29 14:10:28;;;;;;;3.72;3.00;;;39.20;41.50;;;;;;6238166;28;20199;-71
2021/06/29 14:13:51;;;;;;;4.72;2.90;;;39.80;41.20;;;;;;6256941;28;20418;-71
2021/06/29 14:16:57;;;;;;;5.82;3.35;;;40.60;41.10;;;;;;6272384;28;20179;-71
2021/06/29 14:20:00;;;;;;;3.60;3.30;;;40.70;39.70;;;;;;6254290;28;20206;-71
2021/06/29 14:23:02;;;;;;;4.13;3.60;;;40.90;40.90;;;;;;6271702;28;20187;-71
2021/06/29 14:26:04;;;;;;;4.20;3.50;;;40.90;39.80;;;;;;6272011;28;20187;-71
2021/06/29 14:29:07;;;;;;;4.57;3.70;;;41.00;40.20;;;;;;6237092;28;20713;-71
2021/06/29 14:32:09;;;;;;;3.80;3.25;;;40.90;39.70;;;;;;6271764;28;20207;-71
2021/06/29 14:35:12;;;;;;;3.80;3.50;;;41.20;40.40;;;;;;6272005;28;20187;-71
2021/06/29 14:38:14;;;;;;;4.00;3.60;;;41.30;39.50;;;;;;6271428;28;20278;-71
2021/06/29 14:41:18;;;;;;;3.33;3.08;;;41.50;38.60;;;;;;6254213;28;20187;-71
2021/06/29 14:44:21;;;;;;;4.07;3.67;;;41.40;39.60;;;;;;6253318;28;20191;-71
2021/06/29 14:47:23;;;;;;;5.88;3.00;;;41.90;38.40;;;;;;6271665;28;20324;-71
2021/06/29 14:50:25;;;;;;;4.00;3.70;;;42.10;38.20;;;;;;6253715;28;20194;-71
2021/06/29 14:53:28;;;;;;;4.53;3.47;;;42.40;37.70;;;;;;6271038;28;20203;-71
2021/06/29 14:56:30;;;;;;;6.13;3.80;;;41.90;37.20;;;;;;6271374;28;20635;-71
2021/06/29 14:59:33;;;;;;;4.00;3.60;;;41.90;37.00;;;;;;6236611;28;20199;-71
2021/06/29 15:02:36;;;;;;;3.90;3.55;;;42.00;37.50;;;;;;6253236;28;20203;-71
2021/06/29 15:05:39;;;;;;;4.25;3.90;;;42.30;36.90;;;;;;6252755;28;20284;-71
2021/06/29 15:08:43;;;;;;;4.03;3.70;;;42.60;36.50;;;;;;6252932;28;20576;-71
2021/06/29 15:11:47;;;;;;;3.60;3.30;;;42.90;36.70;;;;;;6252453;28;20274;-71
2021/06/29 15:14:50;;;;;;;3.67;3.38;;;43.30;37.10;;;;;;6271277;28;20636;-71
2021/06/29 15:17:54;;;;;;;5.15;4.10;;;43.60;36.60;;;;;;6244791;28;20188;-71
2021/06/29 15:20:56;;;;;;;4.45;4.05;;;43.50;35.60;;;;;;6245564;28;20188;-71
2021/06/29 15:23:59;;;;;;;4.28;3.88;;;42.90;37.10;;;;;;6244819;28;20200;-71
2021/06/29 15:27:02;;;;;;;4.50;4.10;;;42.80;36.70;;;;;;6248187;28;20207;-71
2021/06/29 15:30:10;;;;;;;4.20;3.60;;;43.00;36.40;;;;;;6252116;28;20286;-71
2021/06/29 15:33:12;;;;;;;5.22;4.00;;;43.20;36.10;;;;;;6270699;28;20199;-71
2021/06/29 15:36:14;;;;;;;4.45;4.05;;;43.50;36.10;;;;;;6252368;28;20180;-71
2021/06/29 15:39:18;;;;;;;8.40;4.18;;;43.70;36.50;;;;;;6252751;28;20190;-71
2021/06/29 15:42:20;;;;;;;4.20;3.90;;;43.80;36.00;;;;;;6270657;28;20191;-71
2021/06/29 15:45:23;;;;;;;5.20;4.30;;;43.60;35.80;;;;;;6269874;28;20219;-71
2021/06/29 15:48:25;;;;;;;4.10;3.80;;;43.50;37.10;;;;;;6270493;28;20707;-71
2021/06/29 15:51:28;;;;;;;6.32;3.95;;;43.50;38.00;;;;;;6251791;28;20582;-71
2021/06/29 15:54:30;;;;;;;5.15;4.03;;;43.10;36.20;;;;;;6270212;28;20203;-71
2021/06/29 15:57:32;;;;;;;5.85;4.35;;;42.70;37.10;;;;;;6269733;28;20199;-71
2021/06/29 16:00:35;;;;;;;3.70;3.40;;;42.70;36.70;;;;;;6269862;28;20187;-71
2021/06/29 16:03:37;;;;;;;4.03;3.72;;;42.80;37.20;;;;;;6251753;28;20219;-71
2021/06/29 16:06:41;;;;;;;5.85;4.13;;;43.00;38.90;;;;;;6235164;28;20758;-71
2021/06/29 16:09:43;;;;;;;6.35;3.78;;;42.80;36.40;;;;;;6269765;28;20273;-71